Amunt
Inicio > meteoXarxa
Fes-te'n soci

METEOXARXA

Alcalalí
Ubicació centre
Comarca la Marina Alta
Altitud (msnm) 231
Posició geogràfica 38° 44' 59.06" N, 00° 2' 27.60" W
Model
Presa de dades
Font de les dades
Estadístiques. Resum
Data Temperatura (ºC) Humitat (%) Pressió (hPa) Vent (km/h) Precipit. (mm)
Mínima Mitjana Màxima Mínima Mitjana Màxima Mínima Mitjana Màxima Predom. Mitjana Ràfega màxima Total Dies de pluja
Mínima Mitjana Màxima Mínima Mitjana Màxima
Últimes dades diàries
24-03-2017 6,4     9,9     13,7 WNW 4,5 22,5 0,0  
23-03-2017 8,2     11,6     14,9 WNW 9,2 41,8 0,0  
22-03-2017 12,3     16,2     19,6 WNW 10,8 45,1 0,0  
21-03-2017 8,8     15,1     20,1 WNW 4,0 33,8 0,0  
20-03-2017 10,2     15,0     21,9 ESE 3,1 24,1 0,0  
19-03-2017 8,0     14,9     21,7 ESE 2,9 25,7 0,0  
18-03-2017 5,2     13,1     21,0 WNW 3,2 24,1 0,0  
17-03-2017 5,4     10,7     17,0 WNW 3,1 20,9 0,0  
16-03-2017 7,5     12,4     16,7 WNW 5,3 22,5 0,0  
15-03-2017 10,6     12,7     15,6 NW 7,6 29,0 0,0  
14-03-2017 11,8     12,9     14,9 NNE 9,8 33,8 1,4  
13-03-2017 7,6     10,4     12,7 WNW 13,0 48,3 131,2  
12-03-2017 9,8     15,4     19,9 NE 5,6 38,6 11,8  
10-03-2017 19,6     23,8     30,0 WNW 9,3 27,4 0,0  
09-03-2017 9,9     19,8     29,0 WNW 2,3 19,3 0,0  
08-03-2017 12,5     17,0     21,9 WNW 6,8 29,0 0,0  
07-03-2017 15,6     19,6     24,7 WNW 9,5 38,6 0,0  
06-03-2017 15,5     18,7     22,8 WNW 12,7 48,3 0,0  
05-03-2017 9,1     14,3     19,5 WNW 11,1 37,0 0,0  
04-03-2017 7,8     10,0     12,4 WNW 10,1 57,9 0,0  
03-03-2017 6,0     11,8     17,7 SSW 8,5 59,5 1,8  
02-03-2017 7,8     13,6     19,8 ESE 3,9 24,1 0,0  
01-03-2017 10,7     14,8     17,9 WNW 10,1 45,1 0,0  
28-02-2017 12,3     16,4     21,1 WNW 9,2 43,5 0,0  
27-02-2017 6,5     13,6     21,1 WNW 3,4 24,1 0,0  
25-02-2017 6,2     11,4     16,1 WNW 4,7 25,7 0,0  
24-02-2017 10,6     12,1     14,4 WNW 3,2 22,5 3,2  
23-02-2017 9,8     12,4     17,4 WNW 2,6 19,3 1,0  
22-02-2017 6,9     11,7     17,1 WNW 3,4 16,1 0,0  
21-02-2017 5,7     10,3     15,4 WNW 4,0 19,3 0,0  
20-02-2017 8,9     11,3     13,9 WNW 7,1 30,6 0,0  
19-02-2017 9,3     11,1     12,8 NE 5,3 27,4 0,0  
Dades del mes en curs (actualitzades fins l'últim dia disponible)
03/2017 5,2 9,8 19,6 14,5 12,4 19,4 30,0   7,2 59,5 146,2  
Últimes dades mensuals
02/2017 3,7 8,2 14,5 12,3 12,3 16,5 21,1 6,4 96,6 10,0 6
01/2017 0,2 5,8 8,9 9,1 7,2 13,4 19,3 7,8 75,6 301,2 8
Dades de l'any en curs (actualitzades fins l'últim dia disponible)
2017 0,2 8,2 19,6 12,3 7,2 16,8 30,0   7,0 96,6 457,4  
Últimes dades anuals